Time;durP1;ratioP1;P1;durP2;ratioP2;P2;SDS_P1;SDS_P2;PMS_P1;PMS_P2;Temp;Humidity;BMP_temperature;BMP_pressure;BME280_temperature;BME280_humidity;BME280_pressure;Samples;Min_cycle;Max_cycle;Signal;HPM_P1;HPM_P2
2020/12/18 00:01:20;;;;;;;14.10;10.07;;;;;;;8.42;64.30;97432.88;5092923;28;20419;-70
2020/12/18 00:03:47;;;;;;;15.33;9.90;;;;;;;8.39;63.87;97437.50;5091883;28;20427;-69
2020/12/18 00:06:13;;;;;;;17.87;11.07;;;;;;;8.30;64.37;97439.16;5078006;28;20505;-69
2020/12/18 00:08:39;;;;;;;14.90;10.77;;;;;;;8.08;64.92;97437.53;5093926;28;20425;-69
2020/12/18 00:11:04;;;;;;;15.77;11.53;;;;;;;8.05;64.71;97441.25;5111541;28;20455;-70
2020/12/18 00:13:30;;;;;;;16.57;11.10;;;;;;;7.97;64.87;97443.66;5111543;28;20418;-70
2020/12/18 00:15:56;;;;;;;18.40;11.70;;;;;;;7.91;65.57;97445.03;5093119;28;20285;-71
2020/12/18 00:18:21;;;;;;;14.60;11.13;;;;;;;7.94;65.63;97439.53;5112183;28;20184;-70
2020/12/18 00:20:51;;;;;;;14.70;11.50;;;;;;;7.93;65.57;97443.13;5093113;28;20196;-70
2020/12/18 00:23:17;;;;;;;14.50;10.13;;;;;;;7.92;65.12;97435.41;5111272;28;20184;-71
2020/12/18 00:25:47;;;;;;;13.90;10.80;;;;;;;7.88;65.03;97436.63;5111182;28;20446;-70
2020/12/18 00:28:14;;;;;;;17.23;11.30;;;;;;;7.87;65.20;97445.41;5086032;28;20196;-70
2020/12/18 00:30:40;;;;;;;15.00;12.00;;;;;;;7.81;65.17;97444.97;5093288;28;20530;-70
2020/12/18 00:33:06;;;;;;;16.67;12.23;;;;;;;7.84;65.91;97443.91;5093106;28;20969;-70
2020/12/18 00:35:32;;;;;;;16.13;11.83;;;;;;;7.81;65.88;97450.19;5070693;28;20738;-70
2020/12/18 00:37:57;;;;;;;20.20;12.43;;;;;;;7.78;65.67;97442.63;5110138;28;20426;-70
2020/12/18 00:40:23;;;;;;;17.50;11.70;;;;;;;7.74;65.55;97443.84;5111675;28;20250;-70
2020/12/18 00:42:49;;;;;;;16.97;12.70;;;;;;;7.70;65.59;97442.44;5094396;28;20203;-70
2020/12/18 00:45:14;;;;;;;13.80;11.47;;;;;;;7.64;65.39;97445.56;5093294;28;20212;-70
2020/12/18 00:47:40;;;;;;;19.67;11.60;;;;;;;7.57;66.13;97447.84;5093717;28;20724;-71
2020/12/18 00:50:06;;;;;;;16.77;11.33;;;;;;;7.55;65.40;97451.56;5111508;28;20177;-70
2020/12/18 00:52:32;;;;;;;14.80;10.13;;;;;;;7.49;65.72;97445.88;5111594;28;20229;-71
2020/12/18 00:54:57;;;;;;;16.57;12.23;;;;;;;7.06;66.86;97438.94;5113797;28;20257;-70
2020/12/18 00:57:24;;;;;;;17.53;11.00;;;;;;;7.01;66.36;97441.94;5107880;28;20192;-70
2020/12/18 00:59:50;;;;;;;14.80;11.23;;;;;;;7.06;66.77;97449.38;5104781;28;20640;-70
2020/12/18 01:02:16;;;;;;;16.57;11.53;;;;;;;7.07;66.52;97451.88;5114233;28;20422;-70
2020/12/18 01:04:41;;;;;;;15.43;12.03;;;;;;;7.13;66.41;97453.16;5108859;28;20206;-69
2020/12/18 01:07:07;;;;;;;14.53;11.20;;;;;;;7.16;65.89;97454.69;5116284;28;20209;-71
2020/12/18 01:09:33;;;;;;;19.17;11.40;;;;;;;7.12;66.02;97456.72;5115682;28;20192;-69
2020/12/18 01:11:59;;;;;;;15.40;11.20;;;;;;;6.97;66.41;97455.34;5098729;28;20205;-71
2020/12/18 01:14:24;;;;;;;16.67;11.87;;;;;;;6.91;66.67;97452.28;5083193;28;20197;-70
2020/12/18 01:16:54;;;;;;;17.07;13.07;;;;;;;6.65;68.34;97461.34;5115161;28;20272;-71
2020/12/18 01:19:20;;;;;;;18.70;11.83;;;;;;;6.85;67.32;97463.19;5098245;28;20219;-70
2020/12/18 01:21:47;;;;;;;17.90;13.37;;;;;;;6.96;67.63;97464.09;5088714;28;20428;-70
2020/12/18 01:24:13;;;;;;;18.60;12.97;;;;;;;6.86;68.24;97459.63;5115235;28;20826;-71
2020/12/18 01:26:38;;;;;;;16.00;13.00;;;;;;;6.98;67.84;97470.03;5115818;28;20463;-70
2020/12/18 01:29:04;;;;;;;18.90;14.07;;;;;;;6.78;70.41;97464.63;5096814;28;20900;-70
2020/12/18 01:31:31;;;;;;;18.37;13.50;;;;;;;6.98;70.25;97467.41;5069738;28;20205;-70
2020/12/18 01:33:57;;;;;;;19.77;13.73;;;;;;;7.15;69.45;97469.50;5108317;28;20188;-70
2020/12/18 01:36:23;;;;;;;15.80;12.40;;;;;;;7.22;69.41;97473.25;5094703;28;20946;-71
2020/12/18 01:38:48;;;;;;;18.93;14.00;;;;;;;7.18;70.57;97474.44;5114655;28;20632;-70
2020/12/18 01:41:15;;;;;;;18.53;13.53;;;;;;;7.26;71.02;97471.22;5114581;28;20178;-69
2020/12/18 01:43:40;;;;;;;18.37;13.07;;;;;;;7.49;69.85;97466.75;5114025;28;20224;-70
2020/12/18 01:46:10;;;;;;;19.20;13.67;;;;;;;7.56;70.29;97472.28;5114014;28;20450;-70
2020/12/18 01:48:39;;;;;;;23.50;15.67;;;;;;;7.64;69.78;97475.06;5096234;28;20185;-70
2020/12/18 01:51:10;;;;;;;19.50;14.30;;;;;;;7.59;70.35;97477.25;5069044;28;20970;-70
2020/12/18 01:53:37;;;;;;;20.97;14.30;;;;;;;7.59;69.80;97466.81;5091091;28;20434;-69
2020/12/18 01:56:04;;;;;;;18.93;14.13;;;;;;;7.72;69.54;97471.81;5096138;28;20446;-70
2020/12/18 01:58:32;;;;;;;20.47;14.43;;;;;;;7.75;68.96;97470.78;5079602;28;20533;-71
2020/12/18 02:01:02;;;;;;;18.30;12.97;;;;;;;7.75;68.77;97468.97;5113883;28;20429;-71
2020/12/18 02:03:28;;;;;;;15.17;11.90;;;;;;;7.76;69.08;97468.03;5107943;28;20733;-70
2020/12/18 02:05:56;;;;;;;16.60;12.73;;;;;;;7.76;68.26;97459.34;5095554;28;20451;-70
2020/12/18 02:08:25;;;;;;;17.60;13.30;;;;;;;7.76;68.30;97457.59;5101461;28;20184;-70
2020/12/18 02:10:51;;;;;;;14.73;11.47;;;;;;;7.76;68.33;97459.34;5103653;28;20877;-70
2020/12/18 02:13:17;;;;;;;17.57;13.13;;;;;;;7.77;67.95;97461.84;5113842;28;20426;-70
2020/12/18 02:15:43;;;;;;;16.77;12.67;;;;;;;7.80;68.49;97466.81;5113700;28;20193;-70
2020/12/18 02:18:08;;;;;;;15.90;12.33;;;;;;;7.86;68.78;97462.88;5113353;28;20418;-70
2020/12/18 02:20:35;;;;;;;15.13;11.93;;;;;;;7.91;68.30;97465.09;5113759;28;20648;-70
2020/12/18 02:23:00;;;;;;;14.70;12.17;;;;;;;7.86;67.70;97459.41;5095560;28;20266;-70
2020/12/18 02:25:29;;;;;;;19.77;13.57;;;;;;;7.85;67.84;97445.56;5113066;28;20965;-70
2020/12/18 02:27:55;;;;;;;15.60;11.40;;;;;;;7.89;67.91;97451.34;5113224;28;20599;-70
2020/12/18 02:30:21;;;;;;;15.10;11.60;;;;;;;7.88;67.50;97449.69;5112468;28;20423;-70
2020/12/18 02:32:46;;;;;;;15.63;12.00;;;;;;;7.89;67.30;97453.94;5113221;28;20569;-70
2020/12/18 02:35:12;;;;;;;16.60;12.47;;;;;;;7.87;67.55;97448.03;5096823;28;20197;-70
2020/12/18 02:37:38;;;;;;;16.90;12.27;;;;;;;7.92;67.49;97451.09;5094855;28;20230;-70
2020/12/18 02:40:04;;;;;;;16.60;11.70;;;;;;;7.93;67.52;97444.91;5113160;28;20176;-70
2020/12/18 02:42:30;;;;;;;14.37;11.10;;;;;;;7.89;67.42;97446.94;5112694;28;20173;-70
2020/12/18 02:44:56;;;;;;;15.50;12.23;;;;;;;7.94;67.18;97451.78;5095279;28;20789;-70
2020/12/18 02:47:21;;;;;;;16.73;11.97;;;;;;;7.94;67.00;97446.56;5113188;28;20181;-69
2020/12/18 02:49:47;;;;;;;15.83;11.80;;;;;;;7.93;67.43;97437.06;5112964;28;20777;-70
2020/12/18 02:52:13;;;;;;;16.80;11.97;;;;;;;7.91;66.77;97436.38;5094866;28;20558;-69
2020/12/18 02:54:39;;;;;;;15.63;11.10;;;;;;;7.89;67.37;97431.25;5113036;28;20200;-70
2020/12/18 02:57:04;;;;;;;15.80;12.23;;;;;;;7.88;66.86;97437.44;5112619;28;20181;-70
2020/12/18 02:59:30;;;;;;;14.53;11.47;;;;;;;7.89;67.42;97435.66;5100904;28;20185;-70
2020/12/18 03:01:56;;;;;;;18.63;12.20;;;;;;;7.83;67.40;97432.63;5112416;28;20181;-70
2020/12/18 03:04:21;;;;;;;17.63;12.93;;;;;;;7.82;68.72;97438.78;5101961;28;20175;-70
2020/12/18 03:06:47;;;;;;;20.30;12.47;;;;;;;7.93;68.34;97448.34;5106545;28;20181;-70
2020/12/18 03:09:13;;;;;;;17.87;13.60;;;;;;;7.94;68.02;97436.13;5112742;28;20177;-70
2020/12/18 03:11:40;;;;;;;16.27;12.80;;;;;;;7.99;68.14;97431.31;5094452;28;20197;-70
2020/12/18 03:14:06;;;;;;;17.90;12.57;;;;;;;8.05;68.32;97433.44;5088997;28;20261;-70
2020/12/18 03:16:39;;;;;;;17.70;13.03;;;;;;;8.07;67.92;97438.50;5089575;28;20450;-70
2020/12/18 03:19:05;;;;;;;16.80;13.67;;;;;;;8.10;68.30;97438.25;5061440;28;20426;-70
2020/12/18 03:21:31;;;;;;;17.70;12.20;;;;;;;8.17;68.33;97438.56;5060782;28;20854;-70
2020/12/18 03:23:57;;;;;;;13.10;11.20;;;;;;;8.18;68.28;97429.75;5112316;28;20419;-69
2020/12/18 03:26:22;;;;;;;16.83;12.80;;;;;;;8.11;68.05;97430.28;5102382;28;20255;-69
2020/12/18 03:28:48;;;;;;;17.70;12.37;;;;;;;8.13;68.52;97428.38;5111340;28;20201;-69
2020/12/18 03:31:14;;;;;;;16.10;12.47;;;;;;;8.25;67.99;97436.09;5112787;28;20208;-70
2020/12/18 03:33:40;;;;;;;14.03;11.93;;;;;;;8.27;68.43;97428.97;5094347;28;20181;-70
2020/12/18 03:36:05;;;;;;;15.07;12.00;;;;;;;8.35;68.33;97433.53;5086458;28;20193;-70
2020/12/18 03:38:31;;;;;;;17.17;12.53;;;;;;;8.38;68.61;97449.75;5076973;28;20204;-71
2020/12/18 03:40:57;;;;;;;14.57;11.43;;;;;;;8.41;68.03;97443.44;5102943;28;20180;-70
2020/12/18 03:43:23;;;;;;;15.23;10.97;;;;;;;8.38;67.68;97436.69;5112079;28;20201;-70
2020/12/18 03:45:48;;;;;;;13.60;11.53;;;;;;;8.46;68.11;97436.84;5111508;28;20205;-70
2020/12/18 03:48:14;;;;;;;18.53;12.20;;;;;;;8.44;67.78;97440.56;5111771;28;20189;-70
2020/12/18 03:50:40;;;;;;;15.93;12.63;;;;;;;8.52;68.33;97445.16;5112353;28;20525;-70
2020/12/18 03:53:05;;;;;;;14.20;11.57;;;;;;;8.60;67.80;97437.47;5111792;28;20541;-70
2020/12/18 03:55:31;;;;;;;14.33;11.47;;;;;;;8.64;67.19;97438.03;5111751;28;20197;-70
2020/12/18 03:57:57;;;;;;;16.93;11.90;;;;;;;8.67;67.09;97435.16;5111498;28;20818;-70
2020/12/18 04:00:22;;;;;;;16.50;11.73;;;;;;;8.67;67.19;97428.16;5093997;28;20260;-71
2020/12/18 04:02:48;;;;;;;13.33;11.50;;;;;;;8.63;67.20;97429.38;5112882;28;20210;-70
2020/12/18 04:05:14;;;;;;;16.07;12.07;;;;;;;8.72;67.14;97425.94;5091861;28;20273;-71
2020/12/18 04:07:40;;;;;;;14.47;11.53;;;;;;;8.74;67.74;97421.41;5107956;28;20173;-71
2020/12/18 04:10:06;;;;;;;17.33;11.60;;;;;;;8.78;67.36;97415.91;5093664;28;20256;-70
2020/12/18 04:12:31;;;;;;;18.23;11.87;;;;;;;8.84;67.45;97421.44;5112367;28;20482;-71
2020/12/18 04:14:57;;;;;;;16.10;12.37;;;;;;;8.85;67.21;97417.00;5112739;28;20443;-70
2020/12/18 04:17:23;;;;;;;12.73;11.13;;;;;;;8.90;66.96;97414.84;5113345;28;20173;-71
2020/12/18 04:19:49;;;;;;;15.53;11.33;;;;;;;8.94;66.63;97411.00;5113419;28;20778;-71
2020/12/18 04:22:14;;;;;;;13.00;10.70;;;;;;;8.96;66.89;97406.44;5112681;28;20211;-71
2020/12/18 04:24:40;;;;;;;15.13;11.83;;;;;;;8.90;66.91;97404.38;5093680;28;20639;-71
2020/12/18 04:27:06;;;;;;;15.10;11.53;;;;;;;8.94;67.33;97407.53;5103666;28;20663;-71
2020/12/18 04:29:31;;;;;;;14.40;12.00;;;;;;;8.96;66.58;97398.59;5106586;28;20624;-71
2020/12/18 04:31:57;;;;;;;15.27;11.70;;;;;;;8.89;66.58;97402.72;5093143;28;20574;-70
2020/12/18 04:34:23;;;;;;;15.17;11.70;;;;;;;8.87;66.72;97396.78;5100108;28;20185;-70
2020/12/18 04:36:49;;;;;;;13.47;11.37;;;;;;;8.85;67.06;97409.19;5098074;28;20424;-70
2020/12/18 04:39:14;;;;;;;16.50;11.20;;;;;;;8.86;66.87;97405.59;5115709;28;20627;-71
2020/12/18 04:41:40;;;;;;;14.50;11.20;;;;;;;8.86;66.74;97402.97;5110730;28;20669;-71
2020/12/18 04:44:06;;;;;;;16.30;12.37;;;;;;;8.76;66.46;97403.81;5115363;28;20271;-70
2020/12/18 04:46:35;;;;;;;15.80;11.87;;;;;;;8.72;67.11;97407.66;5096929;28;20204;-70
2020/12/18 04:49:00;;;;;;;16.33;11.70;;;;;;;8.72;67.00;97407.66;5106465;28;20296;-70
2020/12/18 04:51:26;;;;;;;17.30;13.00;;;;;;;8.68;67.00;97406.28;5055555;28;20456;-71
2020/12/18 04:53:53;;;;;;;17.67;13.60;;;;;;;8.71;66.82;97405.19;5111305;28;20203;-70
2020/12/18 04:56:24;;;;;;;14.17;11.97;;;;;;;8.51;66.45;97399.09;5096093;28;20508;-68
2020/12/18 04:58:54;;;;;;;16.83;13.00;;;;;;;8.58;66.88;97403.66;5114705;28;20418;-70
2020/12/18 05:01:22;;;;;;;17.07;12.47;;;;;;;8.62;66.56;97401.59;5114652;28;20970;-71
2020/12/18 05:03:49;;;;;;;18.27;13.40;;;;;;;8.60;66.64;97398.28;5114208;28;20513;-70
2020/12/18 05:06:15;;;;;;;17.27;13.37;;;;;;;8.66;66.55;97408.19;5095459;28;21190;-70
2020/12/18 05:08:43;;;;;;;17.13;12.57;;;;;;;8.66;67.26;97405.59;5114305;28;20479;-70
2020/12/18 05:11:16;;;;;;;17.57;12.80;;;;;;;8.63;67.17;97407.66;5106483;28;20451;-70
2020/12/18 05:13:44;;;;;;;15.83;11.90;;;;;;;8.66;67.46;97404.75;5110826;28;20419;-70
2020/12/18 05:16:10;;;;;;;21.83;12.70;;;;;;;8.68;66.54;97406.28;5079772;28;20430;-70
2020/12/18 05:18:37;;;;;;;15.83;12.13;;;;;;;8.73;66.62;97404.06;5096297;28;20449;-71
2020/12/18 05:21:03;;;;;;;15.67;12.30;;;;;;;8.75;67.04;97394.31;5099020;28;20447;-70
2020/12/18 05:23:29;;;;;;;16.03;12.20;;;;;;;8.73;66.36;97392.81;5114398;28;20438;-71
2020/12/18 05:25:55;;;;;;;13.70;11.30;;;;;;;8.76;66.70;97400.34;5113418;28;20438;-71
2020/12/18 05:28:21;;;;;;;15.60;11.80;;;;;;;8.62;67.02;97385.09;5114433;28;20169;-70
2020/12/18 05:30:48;;;;;;;17.00;11.90;;;;;;;8.65;66.99;97384.81;5094846;28;20462;-70
2020/12/18 05:33:15;;;;;;;13.70;11.53;;;;;;;8.63;67.79;97374.50;5095500;28;20173;-71
2020/12/18 05:35:41;;;;;;;17.77;13.53;;;;;;;8.60;67.82;97382.59;5105646;28;20789;-71
2020/12/18 05:38:07;;;;;;;16.80;11.80;;;;;;;7.89;70.40;97391.31;5095648;28;20430;-71
2020/12/18 05:40:33;;;;;;;24.10;13.07;;;;;;;7.42;72.83;97412.59;5114256;28;20438;-71
2020/12/18 05:43:07;;;;;;;16.17;13.07;;;;;;;7.90;71.89;97411.22;5113527;28;20423;-69
2020/12/18 05:45:33;;;;;;;17.90;12.63;;;;;;;7.62;72.61;97410.94;5113301;28;20196;-70
2020/12/18 05:48:02;;;;;;;20.17;12.87;;;;;;;7.60;73.71;97413.69;5113326;28;20434;-69
2020/12/18 05:50:36;;;;;;;21.73;13.03;;;;;;;7.61;72.92;97415.34;5105814;28;20443;-69
2020/12/18 05:53:04;;;;;;;18.90;13.37;;;;;;;7.44;74.34;97428.97;5111666;28;20468;-71
2020/12/18 05:55:40;;;;;;;17.17;12.67;;;;;;;7.94;72.72;97421.28;5095463;28;20495;-71
2020/12/18 05:58:12;;;;;;;19.87;12.50;;;;;;;8.00;71.78;97415.53;5113657;28;20468;-71
2020/12/18 06:00:40;;;;;;;19.90;12.47;;;;;;;8.27;71.17;97413.28;5113587;28;20903;-69
2020/12/18 06:03:11;;;;;;;32.33;13.83;;;;;;;8.07;71.45;97415.81;5095107;28;20411;-69
2020/12/18 06:05:45;;;;;;;22.60;13.70;;;;;;;8.22;70.88;97415.47;5113499;28;20445;-69
2020/12/18 06:08:19;;;;;;;17.70;13.10;;;;;;;8.40;70.85;97403.44;5098040;28;20403;-69
2020/12/18 06:10:45;;;;;;;21.70;14.70;;;;;;;8.21;70.96;97409.44;5095292;28;20454;-71
2020/12/18 06:13:11;;;;;;;19.53;12.40;;;;;;;8.29;71.15;97411.38;5113660;28;20427;-69
2020/12/18 06:15:37;;;;;;;18.33;11.80;;;;;;;8.41;70.96;97399.88;5113784;28;20334;-69
2020/12/18 06:18:04;;;;;;;23.00;13.33;;;;;;;8.21;70.96;97416.41;5095197;28;20252;-69
2020/12/18 06:20:35;;;;;;;18.30;12.83;;;;;;;8.26;71.14;97416.88;5104511;28;20612;-69
2020/12/18 06:23:04;;;;;;;20.83;13.87;;;;;;;8.19;71.44;97416.56;5111899;28;20425;-69
2020/12/18 06:25:31;;;;;;;17.27;13.70;;;;;;;8.38;70.87;97413.19;5112935;28;20431;-69
2020/12/18 06:27:59;;;;;;;16.23;12.67;;;;;;;8.57;70.73;97409.84;5112746;28;20788;-70
2020/12/18 06:30:26;;;;;;;17.90;13.60;;;;;;;8.32;70.70;97416.31;5094678;28;20878;-69
2020/12/18 06:32:51;;;;;;;20.60;13.40;;;;;;;8.54;69.92;97406.66;5113303;28;20920;-70
2020/12/18 06:35:36;;;;;;;15.10;12.30;;;;;;;8.63;70.29;97413.69;5112893;28;20488;-70
2020/12/18 06:38:14;;;;;;;17.60;12.10;;;;;;;8.71;69.27;97421.66;5112876;28;20679;-70
2020/12/18 06:40:40;;;;;;;21.40;13.40;;;;;;;8.73;69.18;97419.75;5113223;28;20494;-69
2020/12/18 06:43:06;;;;;;;15.93;12.30;;;;;;;8.75;68.92;97417.84;5094441;28;20893;-71
2020/12/18 06:45:32;;;;;;;15.10;12.17;;;;;;;8.79;69.54;97425.41;5112473;28;20542;-69
2020/12/18 06:47:57;;;;;;;18.97;12.60;;;;;;;8.80;69.24;97419.22;5086614;28;20192;-69
2020/12/18 06:50:23;;;;;;;18.80;13.00;;;;;;;8.84;68.75;97423.19;5083036;28;20427;-69
2020/12/18 06:52:57;;;;;;;20.90;13.90;;;;;;;8.85;68.75;97428.31;5107685;28;20233;-70
2020/12/18 06:55:25;;;;;;;17.10;12.67;;;;;;;8.89;69.39;97426.25;5094226;28;20835;-69
2020/12/18 06:58:09;;;;;;;22.13;12.60;;;;;;;8.91;68.92;97424.31;5093874;28;20935;-69
2020/12/18 07:00:55;;;;;;;17.10;12.70;;;;;;;8.92;68.84;97418.13;5099327;28;20923;-69
2020/12/18 07:03:39;;;;;;;14.87;11.57;;;;;;;8.97;68.48;97415.91;5092200;28;20422;-69
2020/12/18 07:06:10;;;;;;;14.80;11.43;;;;;;;8.97;68.40;97413.31;5113237;28;20499;-69
2020/12/18 07:08:38;;;;;;;18.90;13.10;;;;;;;8.98;68.54;97417.56;5112850;28;20423;-70
2020/12/18 07:11:09;;;;;;;15.90;12.33;;;;;;;8.74;68.90;97405.72;5094126;28;20555;-70
2020/12/18 07:13:34;;;;;;;17.33;13.27;;;;;;;8.83;68.82;97406.72;5112261;28;20506;-70
2020/12/18 07:16:05;;;;;;;17.00;12.10;;;;;;;8.78;68.40;97400.22;5112336;28;20530;-70
2020/12/18 07:18:34;;;;;;;19.40;12.30;;;;;;;8.72;68.32;97412.88;5114221;28;20188;-70
2020/12/18 07:21:05;;;;;;;16.60;12.80;;;;;;;8.73;68.62;97408.50;5112693;28;20510;-71
2020/12/18 07:23:33;;;;;;;21.53;12.67;;;;;;;8.80;68.35;97414.00;5086555;28;20500;-70
2020/12/18 07:26:00;;;;;;;18.00;13.00;;;;;;;8.78;68.53;97415.91;5104810;28;20436;-70
2020/12/18 07:28:27;;;;;;;17.00;13.30;;;;;;;8.67;68.95;97419.47;5095676;28;20498;-71
2020/12/18 07:30:55;;;;;;;17.70;13.60;;;;;;;8.78;68.49;97408.06;5102309;28;20459;-70
2020/12/18 07:33:22;;;;;;;19.23;13.83;;;;;;;8.81;68.31;97421.69;5111828;28;20948;-70
2020/12/18 07:35:55;;;;;;;21.33;13.80;;;;;;;8.85;68.30;97415.25;5094083;28;20445;-69
2020/12/18 07:38:28;;;;;;;17.83;13.00;;;;;;;8.92;68.50;97407.69;5093847;28;20411;-70
2020/12/18 07:40:56;;;;;;;19.47;12.07;;;;;;;8.98;68.04;97412.34;5084908;28;20423;-69
2020/12/18 07:43:25;;;;;;;19.33;13.63;;;;;;;9.04;68.13;97411.81;5112123;28;20433;-69
2020/12/18 07:45:52;;;;;;;18.73;12.10;;;;;;;9.12;68.06;97416.34;5093063;28;20446;-70
2020/12/18 07:48:21;;;;;;;20.30;13.67;;;;;;;9.16;67.76;97417.72;5105385;28;20434;-70
2020/12/18 07:51:19;;;;;;;17.23;12.90;;;;;;;9.22;67.80;97416.34;5111589;28;20498;-70
2020/12/18 07:53:55;;;;;;;19.20;14.83;;;;;;;9.16;67.56;97419.50;5111382;28;20419;-69
2020/12/18 07:56:22;;;;;;;21.50;13.40;;;;;;;9.25;68.12;97405.59;5086852;28;20846;-68
2020/12/18 07:58:51;;;;;;;21.57;14.30;;;;;;;9.33;67.14;97410.94;5103449;28;20423;-70
2020/12/18 08:01:29;;;;;;;19.80;13.83;;;;;;;9.40;67.52;97416.44;5100948;28;20938;-70
2020/12/18 08:03:56;;;;;;;20.87;14.20;;;;;;;9.36;66.61;97409.88;5093538;28;20423;-70
2020/12/18 08:06:26;;;;;;;25.67;15.03;;;;;;;9.43;66.70;97410.13;5112255;28;20442;-70
2020/12/18 08:08:59;;;;;;;26.33;14.73;;;;;;;9.23;67.23;97407.53;5111645;28;20423;-70
2020/12/18 08:11:27;;;;;;;20.20;13.07;;;;;;;9.34;67.12;97402.16;5111103;28;20857;-71
2020/12/18 08:13:56;;;;;;;20.20;12.77;;;;;;;9.40;66.35;97405.19;5097212;28;20526;-70
2020/12/18 08:16:24;;;;;;;18.37;13.60;;;;;;;9.35;66.38;97406.41;5108252;28;20921;-70
2020/12/18 08:19:00;;;;;;;18.43;12.57;;;;;;;9.32;66.55;97406.72;5098454;28;20956;-71
2020/12/18 08:21:30;;;;;;;15.00;11.87;;;;;;;9.35;66.61;97416.88;5098213;28;20422;-69
2020/12/18 08:24:21;;;;;;;22.40;13.57;;;;;;;9.43;66.68;97418.78;5098037;28;20913;-71
2020/12/18 08:26:54;;;;;;;16.10;13.30;;;;;;;9.52;66.48;97417.13;5097466;28;20563;-69
2020/12/18 08:29:21;;;;;;;17.83;13.40;;;;;;;9.62;66.10;97419.75;5097796;28;20510;-69
2020/12/18 08:31:47;;;;;;;18.20;11.63;;;;;;;9.62;65.85;97422.34;5104233;28;20446;-70
2020/12/18 08:34:15;;;;;;;19.80;12.67;;;;;;;9.75;66.12;97422.88;5097583;28;21045;-71
2020/12/18 08:36:45;;;;;;;16.40;12.43;;;;;;;9.74;65.79;97415.16;5090802;28;20467;-71
2020/12/18 08:39:11;;;;;;;16.93;12.70;;;;;;;9.64;66.29;97413.41;5100125;28;20418;-71
2020/12/18 08:41:53;;;;;;;19.37;13.43;;;;;;;9.79;65.44;97426.03;5116017;28;20433;-71
2020/12/18 08:44:23;;;;;;;24.10;13.60;;;;;;;9.64;65.78;97426.47;5101036;28;20579;-70
2020/12/18 08:46:50;;;;;;;16.90;12.27;;;;;;;9.89;65.79;97416.34;5088338;28;20791;-69
2020/12/18 08:49:22;;;;;;;17.90;12.73;;;;;;;9.84;65.43;97422.03;5107749;28;20763;-75
2020/12/18 08:51:50;;;;;;;15.63;11.77;;;;;;;9.80;65.13;97422.47;5088931;28;20498;-72
2020/12/18 08:54:22;;;;;;;15.20;12.13;;;;;;;9.96;64.85;97427.91;5097084;28;20418;-73
2020/12/18 08:57:11;;;;;;;19.53;12.77;;;;;;;10.01;64.81;97413.56;5115345;28;20769;-74
2020/12/18 08:59:38;;;;;;;18.07;12.50;;;;;;;10.14;64.57;97414.06;5097440;28;20415;-74
2020/12/18 09:02:04;;;;;;;16.80;12.07;;;;;;;10.05;64.29;97418.38;5107204;28;20945;-73
2020/12/18 09:04:29;;;;;;;13.43;11.13;;;;;;;10.10;64.40;97420.53;5079457;28;20504;-74
2020/12/18 09:06:55;;;;;;;15.73;11.50;;;;;;;10.14;64.50;97406.22;5064104;28;20426;-74
2020/12/18 09:09:21;;;;;;;12.43;10.57;;;;;;;9.97;64.40;97419.06;5104735;28;20441;-74
2020/12/18 09:11:48;;;;;;;14.97;11.93;;;;;;;10.01;64.50;97419.63;5113054;28;20292;-73
2020/12/18 09:14:27;;;;;;;18.40;12.70;;;;;;;10.08;64.24;97425.13;5114958;28;20180;-73
2020/12/18 09:16:57;;;;;;;15.97;12.40;;;;;;;9.95;64.73;97421.03;5105735;28;20426;-72
2020/12/18 09:19:23;;;;;;;15.83;12.17;;;;;;;10.02;64.86;97409.97;5090316;28;20419;-72
2020/12/18 09:21:49;;;;;;;20.50;11.87;;;;;;;10.05;64.54;97414.94;5079242;28;20415;-72
2020/12/18 09:24:20;;;;;;;14.80;12.33;;;;;;;10.17;64.79;97410.31;5112968;28;20415;-72
2020/12/18 09:26:46;;;;;;;15.03;11.73;;;;;;;10.28;64.73;97416.22;5116112;28;20185;-72
2020/12/18 09:29:18;;;;;;;19.67;12.30;;;;;;;10.25;64.13;97416.50;5110762;28;20484;-73
2020/12/18 09:31:46;;;;;;;15.80;12.37;;;;;;;10.35;63.90;97416.44;5123903;28;20522;-72
2020/12/18 09:34:15;;;;;;;16.10;12.10;;;;;;;10.35;64.13;97419.06;5113892;28;20411;-73
2020/12/18 09:36:41;;;;;;;13.43;11.50;;;;;;;10.34;63.87;97419.19;5071861;28;20510;-71
2020/12/18 09:39:07;;;;;;;15.60;11.87;;;;;;;10.44;63.77;97414.78;5111065;28;20416;-73
2020/12/18 09:41:34;;;;;;;15.10;11.13;;;;;;;10.50;63.89;97414.19;5082897;28;20464;-71
2020/12/18 09:44:00;;;;;;;13.90;11.30;;;;;;;10.56;63.56;97416.25;5114322;28;20463;-72
2020/12/18 09:46:25;;;;;;;15.00;11.17;;;;;;;10.70;63.30;97416.72;5096237;28;20489;-72
2020/12/18 09:48:51;;;;;;;14.03;10.43;;;;;;;10.77;63.21;97409.88;5114954;28;20419;-72
2020/12/18 09:51:18;;;;;;;20.80;12.43;;;;;;;10.78;63.23;97408.91;5115045;28;20253;-73
2020/12/18 09:53:44;;;;;;;16.63;11.10;;;;;;;10.87;63.05;97405.41;5109718;28;20180;-74
2020/12/18 09:56:11;;;;;;;16.17;10.90;;;;;;;11.04;62.86;97408.19;5099759;28;20446;-73
2020/12/18 09:58:37;;;;;;;17.83;11.40;;;;;;;11.18;62.87;97406.81;5098898;28;20468;-72
2020/12/18 10:01:04;;;;;;;15.47;9.93;;;;;;;11.11;62.83;97400.53;5085695;28;20437;-72
2020/12/18 10:03:29;;;;;;;13.43;9.83;;;;;;;11.12;62.90;97400.38;5111365;28;20743;-70
2020/12/18 10:05:59;;;;;;;11.83;8.93;;;;;;;11.27;62.31;97399.84;5109192;28;20469;-70
2020/12/18 10:08:25;;;;;;;11.30;8.60;;;;;;;11.41;61.90;97404.53;5083783;28;20180;-72
2020/12/18 10:10:51;;;;;;;9.60;7.97;;;;;;;11.37;62.06;97405.81;5111048;28;20471;-72
2020/12/18 10:13:17;;;;;;;14.97;9.53;;;;;;;11.39;61.81;97405.69;5109231;28;20181;-72
2020/12/18 10:15:43;;;;;;;10.57;8.60;;;;;;;11.40;62.02;97402.91;5124442;28;20203;-72
2020/12/18 10:18:09;;;;;;;8.57;7.73;;;;;;;11.47;61.73;97403.91;5127186;28;20403;-72
2020/12/18 10:20:35;;;;;;;10.30;7.63;;;;;;;11.71;61.04;97397.22;5102204;28;20418;-73
2020/12/18 10:23:01;;;;;;;9.63;6.90;;;;;;;11.62;61.32;97396.34;5113694;28;20188;-73
2020/12/18 10:25:27;;;;;;;8.47;7.17;;;;;;;11.73;60.65;97395.22;5099418;28;20543;-73
2020/12/18 10:27:53;;;;;;;9.73;7.37;;;;;;;11.68;61.08;97392.25;5113662;28;20189;-74
2020/12/18 10:30:18;;;;;;;7.47;6.67;;;;;;;11.86;60.67;97389.56;5091411;28;20426;-72
2020/12/18 10:32:45;;;;;;;8.80;7.40;;;;;;;11.88;60.39;97386.78;5087950;28;20223;-72
2020/12/18 10:35:11;;;;;;;11.13;7.10;;;;;;;11.82;60.68;97382.97;5104027;28;20231;-72
2020/12/18 10:37:37;;;;;;;9.60;7.40;;;;;;;11.91;60.38;97383.84;5061302;28;20427;-72
2020/12/18 10:40:06;;;;;;;8.27;6.97;;;;;;;11.77;60.77;97386.06;5108479;28;20930;-72
2020/12/18 10:42:32;;;;;;;9.83;7.80;;;;;;;12.04;60.08;97368.50;5085203;28;20222;-74
2020/12/18 10:44:58;;;;;;;9.07;6.70;;;;;;;12.19;59.47;97375.81;5094833;28;20522;-74
2020/12/18 10:47:24;;;;;;;10.97;6.90;;;;;;;12.30;59.31;97372.88;5108970;28;20535;-73
2020/12/18 10:49:49;;;;;;;9.87;8.20;;;;;;;11.99;60.03;97368.16;5110565;28;20180;-73
2020/12/18 10:52:15;;;;;;;8.30;7.23;;;;;;;12.29;59.51;97379.13;5112177;28;20627;-73
2020/12/18 10:54:42;;;;;;;10.23;6.87;;;;;;;12.18;58.87;97377.59;5103885;28;20201;-73
2020/12/18 10:57:09;;;;;;;9.00;6.90;;;;;;;12.43;58.44;97362.75;5096040;28;20177;-73
2020/12/18 10:59:35;;;;;;;8.73;6.50;;;;;;;12.41;58.53;97359.44;5094257;28;20454;-73
2020/12/18 11:02:02;;;;;;;8.03;6.50;;;;;;;12.60;58.59;97354.91;5082991;28;20454;-72
2020/12/18 11:04:28;;;;;;;8.50;6.60;;;;;;;12.40;58.90;97360.44;5077008;28;20256;-73
2020/12/18 11:06:54;;;;;;;8.80;7.30;;;;;;;12.41;58.30;97345.50;5112943;28;21208;-71
2020/12/18 11:09:20;;;;;;;10.20;7.90;;;;;;;12.64;58.49;97345.69;5076807;28;20554;-72
2020/12/18 11:11:49;;;;;;;10.13;7.83;;;;;;;12.85;58.12;97339.97;5111237;28;20208;-72
2020/12/18 11:14:15;;;;;;;10.17;6.60;;;;;;;12.75;57.66;97342.75;5102272;28;20170;-74
2020/12/18 11:16:41;;;;;;;8.20;6.97;;;;;;;12.91;57.49;97341.13;5078957;28;20772;-74
2020/12/18 11:19:08;;;;;;;9.17;6.50;;;;;;;13.09;57.06;97338.31;5111182;28;20173;-73
2020/12/18 11:21:33;;;;;;;12.33;7.43;;;;;;;13.23;56.37;97338.66;5082958;28;20208;-74
2020/12/18 11:23:59;;;;;;;9.20;6.93;;;;;;;13.12;56.74;97337.16;5111828;28;20886;-72
2020/12/18 11:26:25;;;;;;;6.50;5.90;;;;;;;13.28;56.24;97346.88;5085430;28;20295;-73